Terminal Aerodrome Forecast
Issued by NWS Jackson, MS

Home | Current Version | Previous Version | Text Only | Print | Product List | Glossary On
Versions: 1 2 3 4 5 6 7 8 9 10 11 12 13 14
000
FTUS44 KMEG 300533
TAFTUP
TAF
KTUP 300533Z 3006/0106 22003KT P6SM SKC
     FM300730 21004KT P6SM VCTS SCT060CB
      TEMPO 3008/3010 VRB10G30KT 2SM +TSRA OVC035CB
     FM301400 28008KT P6SM SCT060=

USA.gov is the U.S. government's official web portal to all federal, state and local government web resources and services.